sensor_id;sensor_type;location;lat;lon;timestamp;P1;durP1;ratioP1;P2;durP2;ratioP2
16254;SDS011;8235;52.198;9.904;2023-04-27T00:01:17;6.67;;;3.80;;
16254;SDS011;8235;52.198;9.904;2023-04-27T00:03:44;5.97;;;3.90;;
16254;SDS011;8235;52.198;9.904;2023-04-27T00:06:12;5.40;;;3.73;;
16254;SDS011;8235;52.198;9.904;2023-04-27T00:08:39;9.33;;;3.33;;
16254;SDS011;8235;52.198;9.904;2023-04-27T00:11:06;8.07;;;4.50;;
16254;SDS011;8235;52.198;9.904;2023-04-27T00:13:32;4.57;;;3.63;;
16254;SDS011;8235;52.198;9.904;2023-04-27T00:15:59;5.23;;;3.43;;
16254;SDS011;8235;52.198;9.904;2023-04-27T00:18:27;5.87;;;3.90;;
16254;SDS011;8235;52.198;9.904;2023-04-27T00:20:55;8.30;;;4.03;;
16254;SDS011;8235;52.198;9.904;2023-04-27T00:23:23;5.80;;;3.60;;
16254;SDS011;8235;52.198;9.904;2023-04-27T00:25:50;7.73;;;4.10;;
16254;SDS011;8235;52.198;9.904;2023-04-27T00:28:17;7.07;;;3.63;;
16254;SDS011;8235;52.198;9.904;2023-04-27T00:30:43;7.43;;;4.20;;
16254;SDS011;8235;52.198;9.904;2023-04-27T00:33:10;5.57;;;3.77;;
16254;SDS011;8235;52.198;9.904;2023-04-27T00:35:37;6.10;;;4.30;;
16254;SDS011;8235;52.198;9.904;2023-04-27T00:38:03;8.07;;;3.97;;
16254;SDS011;8235;52.198;9.904;2023-04-27T00:40:31;7.30;;;3.70;;
16254;SDS011;8235;52.198;9.904;2023-04-27T00:42:58;6.20;;;4.30;;
16254;SDS011;8235;52.198;9.904;2023-04-27T00:45:25;6.37;;;3.63;;
16254;SDS011;8235;52.198;9.904;2023-04-27T00:47:52;8.67;;;4.67;;
16254;SDS011;8235;52.198;9.904;2023-04-27T00:50:18;4.87;;;3.87;;
16254;SDS011;8235;52.198;9.904;2023-04-27T00:52:52;5.67;;;4.23;;
16254;SDS011;8235;52.198;9.904;2023-04-27T00:55:19;6.17;;;3.73;;
16254;SDS011;8235;52.198;9.904;2023-04-27T00:57:47;7.30;;;4.47;;
16254;SDS011;8235;52.198;9.904;2023-04-27T01:00:14;8.50;;;4.40;;
16254;SDS011;8235;52.198;9.904;2023-04-27T01:02:41;7.47;;;4.17;;
16254;SDS011;8235;52.198;9.904;2023-04-27T01:05:08;4.87;;;3.90;;
16254;SDS011;8235;52.198;9.904;2023-04-27T01:07:36;6.97;;;4.27;;
16254;SDS011;8235;52.198;9.904;2023-04-27T01:10:03;6.47;;;4.23;;
16254;SDS011;8235;52.198;9.904;2023-04-27T01:12:30;8.20;;;4.93;;
16254;SDS011;8235;52.198;9.904;2023-04-27T01:14:58;6.87;;;4.27;;
16254;SDS011;8235;52.198;9.904;2023-04-27T01:17:25;7.20;;;4.33;;
16254;SDS011;8235;52.198;9.904;2023-04-27T01:19:52;4.90;;;4.00;;
16254;SDS011;8235;52.198;9.904;2023-04-27T01:22:20;5.07;;;4.10;;
16254;SDS011;8235;52.198;9.904;2023-04-27T01:24:48;7.17;;;4.37;;
16254;SDS011;8235;52.198;9.904;2023-04-27T01:27:15;7.07;;;3.93;;
16254;SDS011;8235;52.198;9.904;2023-04-27T01:29:42;9.30;;;4.57;;
16254;SDS011;8235;52.198;9.904;2023-04-27T01:32:09;9.33;;;4.50;;
16254;SDS011;8235;52.198;9.904;2023-04-27T01:34:36;6.93;;;4.30;;
16254;SDS011;8235;52.198;9.904;2023-04-27T01:37:03;6.27;;;4.57;;
16254;SDS011;8235;52.198;9.904;2023-04-27T01:39:29;6.47;;;4.93;;
16254;SDS011;8235;52.198;9.904;2023-04-27T01:41:57;10.57;;;5.10;;
16254;SDS011;8235;52.198;9.904;2023-04-27T01:44:24;9.53;;;4.63;;
16254;SDS011;8235;52.198;9.904;2023-04-27T01:46:52;8.33;;;4.23;;
16254;SDS011;8235;52.198;9.904;2023-04-27T01:49:19;7.43;;;5.03;;
16254;SDS011;8235;52.198;9.904;2023-04-27T01:51:45;7.27;;;4.63;;
16254;SDS011;8235;52.198;9.904;2023-04-27T01:54:12;7.03;;;4.90;;
16254;SDS011;8235;52.198;9.904;2023-04-27T01:56:39;11.27;;;5.23;;
16254;SDS011;8235;52.198;9.904;2023-04-27T01:59:07;9.73;;;4.93;;
16254;SDS011;8235;52.198;9.904;2023-04-27T02:01:34;9.27;;;5.20;;
16254;SDS011;8235;52.198;9.904;2023-04-27T02:04:00;11.03;;;4.80;;
16254;SDS011;8235;52.198;9.904;2023-04-27T02:06:28;9.57;;;4.90;;
16254;SDS011;8235;52.198;9.904;2023-04-27T02:08:55;6.43;;;4.40;;
16254;SDS011;8235;52.198;9.904;2023-04-27T02:11:22;9.17;;;5.50;;
16254;SDS011;8235;52.198;9.904;2023-04-27T02:13:48;7.27;;;4.50;;
16254;SDS011;8235;52.198;9.904;2023-04-27T02:16:16;7.73;;;4.50;;
16254;SDS011;8235;52.198;9.904;2023-04-27T02:18:43;8.83;;;4.50;;
16254;SDS011;8235;52.198;9.904;2023-04-27T02:21:10;8.70;;;4.57;;
16254;SDS011;8235;52.198;9.904;2023-04-27T02:23:37;6.67;;;4.67;;
16254;SDS011;8235;52.198;9.904;2023-04-27T02:26:04;10.30;;;4.37;;
16254;SDS011;8235;52.198;9.904;2023-04-27T02:28:31;10.50;;;4.57;;
16254;SDS011;8235;52.198;9.904;2023-04-27T02:30:58;6.77;;;4.27;;
16254;SDS011;8235;52.198;9.904;2023-04-27T02:33:26;8.57;;;4.93;;
16254;SDS011;8235;52.198;9.904;2023-04-27T02:35:53;10.00;;;4.57;;
16254;SDS011;8235;52.198;9.904;2023-04-27T02:38:20;7.53;;;4.30;;
16254;SDS011;8235;52.198;9.904;2023-04-27T02:40:51;7.03;;;4.80;;
16254;SDS011;8235;52.198;9.904;2023-04-27T02:43:18;7.43;;;4.17;;
16254;SDS011;8235;52.198;9.904;2023-04-27T02:45:45;5.03;;;4.03;;
16254;SDS011;8235;52.198;9.904;2023-04-27T02:48:12;6.67;;;4.03;;
16254;SDS011;8235;52.198;9.904;2023-04-27T02:50:40;7.63;;;4.13;;
16254;SDS011;8235;52.198;9.904;2023-04-27T02:53:08;8.73;;;4.50;;
16254;SDS011;8235;52.198;9.904;2023-04-27T02:55:35;8.63;;;4.20;;
16254;SDS011;8235;52.198;9.904;2023-04-27T02:58:02;8.67;;;4.20;;
16254;SDS011;8235;52.198;9.904;2023-04-27T03:00:29;6.90;;;3.73;;
16254;SDS011;8235;52.198;9.904;2023-04-27T03:02:56;7.00;;;4.57;;
16254;SDS011;8235;52.198;9.904;2023-04-27T03:05:24;6.23;;;4.13;;
16254;SDS011;8235;52.198;9.904;2023-04-27T03:07:53;6.30;;;4.30;;
16254;SDS011;8235;52.198;9.904;2023-04-27T03:10:20;8.90;;;4.00;;
16254;SDS011;8235;52.198;9.904;2023-04-27T03:12:46;6.10;;;4.27;;
16254;SDS011;8235;52.198;9.904;2023-04-27T03:15:13;7.67;;;4.47;;
16254;SDS011;8235;52.198;9.904;2023-04-27T03:17:40;5.90;;;4.27;;
16254;SDS011;8235;52.198;9.904;2023-04-27T03:20:07;8.03;;;4.97;;
16254;SDS011;8235;52.198;9.904;2023-04-27T03:22:34;7.37;;;4.87;;
16254;SDS011;8235;52.198;9.904;2023-04-27T03:25:02;6.60;;;4.50;;
16254;SDS011;8235;52.198;9.904;2023-04-27T03:27:29;10.37;;;5.03;;
16254;SDS011;8235;52.198;9.904;2023-04-27T03:29:56;7.13;;;4.70;;
16254;SDS011;8235;52.198;9.904;2023-04-27T03:32:23;6.57;;;4.40;;
16254;SDS011;8235;52.198;9.904;2023-04-27T03:34:50;8.60;;;4.30;;
16254;SDS011;8235;52.198;9.904;2023-04-27T03:37:17;6.57;;;4.17;;
16254;SDS011;8235;52.198;9.904;2023-04-27T03:39:43;7.70;;;4.23;;
16254;SDS011;8235;52.198;9.904;2023-04-27T03:42:12;8.23;;;4.30;;
16254;SDS011;8235;52.198;9.904;2023-04-27T03:44:38;8.10;;;4.23;;
16254;SDS011;8235;52.198;9.904;2023-04-27T03:47:05;9.40;;;4.50;;
16254;SDS011;8235;52.198;9.904;2023-04-27T03:49:33;6.57;;;5.00;;
16254;SDS011;8235;52.198;9.904;2023-04-27T03:52:00;6.20;;;5.07;;
16254;SDS011;8235;52.198;9.904;2023-04-27T03:54:27;5.83;;;4.90;;
16254;SDS011;8235;52.198;9.904;2023-04-27T03:56:53;8.33;;;5.30;;
16254;SDS011;8235;52.198;9.904;2023-04-27T03:59:22;7.00;;;5.07;;
16254;SDS011;8235;52.198;9.904;2023-04-27T04:01:49;8.70;;;5.53;;
16254;SDS011;8235;52.198;9.904;2023-04-27T04:04:15;6.27;;;4.40;;
16254;SDS011;8235;52.198;9.904;2023-04-27T04:06:42;8.40;;;4.57;;
16254;SDS011;8235;52.198;9.904;2023-04-27T04:09:08;7.03;;;4.70;;
16254;SDS011;8235;52.198;9.904;2023-04-27T04:11:36;6.70;;;4.27;;
16254;SDS011;8235;52.198;9.904;2023-04-27T04:14:03;6.57;;;4.80;;
16254;SDS011;8235;52.198;9.904;2023-04-27T04:16:31;11.63;;;4.60;;
16254;SDS011;8235;52.198;9.904;2023-04-27T04:18:58;7.20;;;4.60;;
16254;SDS011;8235;52.198;9.904;2023-04-27T04:21:25;6.00;;;3.77;;
16254;SDS011;8235;52.198;9.904;2023-04-27T04:23:51;7.50;;;3.57;;
16254;SDS011;8235;52.198;9.904;2023-04-27T04:26:18;7.47;;;3.83;;
16254;SDS011;8235;52.198;9.904;2023-04-27T04:28:47;9.17;;;4.53;;
16254;SDS011;8235;52.198;9.904;2023-04-27T04:31:14;6.60;;;4.23;;
16254;SDS011;8235;52.198;9.904;2023-04-27T04:33:43;6.83;;;3.53;;
16254;SDS011;8235;52.198;9.904;2023-04-27T04:36:10;6.97;;;3.93;;
16254;SDS011;8235;52.198;9.904;2023-04-27T04:38:37;6.80;;;3.90;;
16254;SDS011;8235;52.198;9.904;2023-04-27T04:41:03;5.83;;;3.83;;
16254;SDS011;8235;52.198;9.904;2023-04-27T04:43:31;5.43;;;3.43;;
16254;SDS011;8235;52.198;9.904;2023-04-27T04:45:57;6.27;;;3.60;;
16254;SDS011;8235;52.198;9.904;2023-04-27T04:48:24;6.67;;;3.87;;
16254;SDS011;8235;52.198;9.904;2023-04-27T04:50:52;8.43;;;3.40;;
16254;SDS011;8235;52.198;9.904;2023-04-27T04:53:19;5.60;;;3.40;;
16254;SDS011;8235;52.198;9.904;2023-04-27T04:55:45;6.93;;;3.87;;
16254;SDS011;8235;52.198;9.904;2023-04-27T04:58:12;5.47;;;3.47;;
16254;SDS011;8235;52.198;9.904;2023-04-27T05:00:39;7.73;;;5.20;;
16254;SDS011;8235;52.198;9.904;2023-04-27T05:03:05;6.90;;;4.17;;
16254;SDS011;8235;52.198;9.904;2023-04-27T05:05:32;9.07;;;4.03;;
16254;SDS011;8235;52.198;9.904;2023-04-27T05:08:00;5.43;;;3.67;;
16254;SDS011;8235;52.198;9.904;2023-04-27T05:10:26;6.23;;;3.40;;
16254;SDS011;8235;52.198;9.904;2023-04-27T05:12:53;10.07;;;3.27;;
16254;SDS011;8235;52.198;9.904;2023-04-27T05:15:19;6.03;;;3.23;;
16254;SDS011;8235;52.198;9.904;2023-04-27T05:17:46;7.40;;;3.47;;
16254;SDS011;8235;52.198;9.904;2023-04-27T05:20:12;7.83;;;4.13;;
16254;SDS011;8235;52.198;9.904;2023-04-27T05:22:39;6.27;;;3.50;;
16254;SDS011;8235;52.198;9.904;2023-04-27T05:25:07;6.90;;;3.63;;
16254;SDS011;8235;52.198;9.904;2023-04-27T05:27:34;4.60;;;3.10;;
16254;SDS011;8235;52.198;9.904;2023-04-27T05:30:00;6.63;;;3.20;;
16254;SDS011;8235;52.198;9.904;2023-04-27T05:32:27;5.43;;;3.10;;
16254;SDS011;8235;52.198;9.904;2023-04-27T05:34:54;9.03;;;3.50;;
16254;SDS011;8235;52.198;9.904;2023-04-27T05:37:21;9.80;;;3.90;;
16254;SDS011;8235;52.198;9.904;2023-04-27T05:39:47;5.77;;;3.40;;
16254;SDS011;8235;52.198;9.904;2023-04-27T05:42:16;7.17;;;3.93;;
16254;SDS011;8235;52.198;9.904;2023-04-27T05:44:42;6.07;;;3.90;;
16254;SDS011;8235;52.198;9.904;2023-04-27T05:47:09;4.90;;;3.57;;
16254;SDS011;8235;52.198;9.904;2023-04-27T05:49:35;5.13;;;3.47;;
16254;SDS011;8235;52.198;9.904;2023-04-27T05:52:02;8.50;;;3.67;;
16254;SDS011;8235;52.198;9.904;2023-04-27T05:54:29;5.97;;;3.57;;
16254;SDS011;8235;52.198;9.904;2023-04-27T05:56:55;5.90;;;3.63;;
16254;SDS011;8235;52.198;9.904;2023-04-27T05:59:23;7.53;;;3.53;;
16254;SDS011;8235;52.198;9.904;2023-04-27T06:01:51;6.23;;;3.40;;
16254;SDS011;8235;52.198;9.904;2023-04-27T06:04:18;7.67;;;3.77;;
16254;SDS011;8235;52.198;9.904;2023-04-27T06:06:44;5.17;;;3.80;;
16254;SDS011;8235;52.198;9.904;2023-04-27T06:09:11;10.57;;;3.90;;
16254;SDS011;8235;52.198;9.904;2023-04-27T06:11:38;5.33;;;4.07;;
16254;SDS011;8235;52.198;9.904;2023-04-27T06:14:05;9.87;;;4.20;;
16254;SDS011;8235;52.198;9.904;2023-04-27T06:16:33;8.33;;;4.10;;
16254;SDS011;8235;52.198;9.904;2023-04-27T06:18:59;6.77;;;3.70;;
16254;SDS011;8235;52.198;9.904;2023-04-27T06:21:26;6.23;;;3.57;;
16254;SDS011;8235;52.198;9.904;2023-04-27T06:23:52;5.90;;;3.43;;
16254;SDS011;8235;52.198;9.904;2023-04-27T06:26:19;6.87;;;3.63;;
16254;SDS011;8235;52.198;9.904;2023-04-27T06:28:45;8.47;;;2.80;;
16254;SDS011;8235;52.198;9.904;2023-04-27T06:31:12;5.27;;;2.60;;
16254;SDS011;8235;52.198;9.904;2023-04-27T06:33:40;6.63;;;3.13;;
16254;SDS011;8235;52.198;9.904;2023-04-27T06:36:07;7.83;;;2.70;;
16254;SDS011;8235;52.198;9.904;2023-04-27T06:38:33;5.83;;;2.60;;
16254;SDS011;8235;52.198;9.904;2023-04-27T06:41:00;3.97;;;2.77;;
16254;SDS011;8235;52.198;9.904;2023-04-27T06:43:27;5.07;;;2.50;;
16254;SDS011;8235;52.198;9.904;2023-04-27T06:45:54;4.47;;;2.47;;
16254;SDS011;8235;52.198;9.904;2023-04-27T06:48:21;4.43;;;2.27;;
16254;SDS011;8235;52.198;9.904;2023-04-27T06:50:49;4.40;;;3.00;;
16254;SDS011;8235;52.198;9.904;2023-04-27T06:53:16;6.63;;;2.33;;
16254;SDS011;8235;52.198;9.904;2023-04-27T06:55:42;4.17;;;2.40;;
16254;SDS011;8235;52.198;9.904;2023-04-27T06:58:09;4.10;;;2.43;;
16254;SDS011;8235;52.198;9.904;2023-04-27T07:00:36;4.80;;;2.90;;
16254;SDS011;8235;52.198;9.904;2023-04-27T07:03:02;4.33;;;2.47;;
16254;SDS011;8235;52.198;9.904;2023-04-27T07:05:29;5.27;;;2.43;;
16254;SDS011;8235;52.198;9.904;2023-04-27T07:07:57;5.43;;;2.60;;
16254;SDS011;8235;52.198;9.904;2023-04-27T07:10:23;3.97;;;2.40;;
16254;SDS011;8235;52.198;9.904;2023-04-27T07:12:50;4.10;;;2.57;;
16254;SDS011;8235;52.198;9.904;2023-04-27T07:15:17;2.63;;;2.20;;
16254;SDS011;8235;52.198;9.904;2023-04-27T07:17:43;4.33;;;2.20;;
16254;SDS011;8235;52.198;9.904;2023-04-27T07:20:10;5.97;;;2.60;;
16254;SDS011;8235;52.198;9.904;2023-04-27T07:22:38;3.70;;;1.90;;
16254;SDS011;8235;52.198;9.904;2023-04-27T07:25:06;5.67;;;1.90;;
16254;SDS011;8235;52.198;9.904;2023-04-27T07:27:34;3.40;;;2.10;;
16254;SDS011;8235;52.198;9.904;2023-04-27T07:30:00;3.57;;;1.90;;
16254;SDS011;8235;52.198;9.904;2023-04-27T07:32:27;5.37;;;1.73;;
16254;SDS011;8235;52.198;9.904;2023-04-27T07:34:55;5.97;;;1.90;;
16254;SDS011;8235;52.198;9.904;2023-04-27T07:37:22;4.13;;;2.37;;
16254;SDS011;8235;52.198;9.904;2023-04-27T07:39:49;3.53;;;2.17;;
16254;SDS011;8235;52.198;9.904;2023-04-27T07:42:18;3.63;;;1.97;;
16254;SDS011;8235;52.198;9.904;2023-04-27T07:44:46;4.47;;;2.10;;
16254;SDS011;8235;52.198;9.904;2023-04-27T07:47:14;3.40;;;2.17;;
16254;SDS011;8235;52.198;9.904;2023-04-27T07:49:41;4.20;;;2.00;;
16254;SDS011;8235;52.198;9.904;2023-04-27T07:52:09;4.50;;;1.73;;
16254;SDS011;8235;52.198;9.904;2023-04-27T07:54:36;4.93;;;1.90;;
16254;SDS011;8235;52.198;9.904;2023-04-27T07:57:06;2.77;;;1.73;;
16254;SDS011;8235;52.198;9.904;2023-04-27T07:59:34;3.07;;;1.63;;
16254;SDS011;8235;52.198;9.904;2023-04-27T08:02:01;3.43;;;1.40;;
16254;SDS011;8235;52.198;9.904;2023-04-27T08:04:27;3.93;;;1.50;;
16254;SDS011;8235;52.198;9.904;2023-04-27T08:06:54;3.83;;;1.60;;
16254;SDS011;8235;52.198;9.904;2023-04-27T08:09:21;2.90;;;1.50;;
16254;SDS011;8235;52.198;9.904;2023-04-27T08:11:48;2.77;;;1.60;;
16254;SDS011;8235;52.198;9.904;2023-04-27T08:14:14;3.10;;;1.60;;
16254;SDS011;8235;52.198;9.904;2023-04-27T08:16:42;3.47;;;1.60;;
16254;SDS011;8235;52.198;9.904;2023-04-27T08:19:09;3.60;;;1.70;;
16254;SDS011;8235;52.198;9.904;2023-04-27T08:21:36;3.87;;;2.13;;
16254;SDS011;8235;52.198;9.904;2023-04-27T08:24:03;4.27;;;1.50;;
16254;SDS011;8235;52.198;9.904;2023-04-27T08:26:31;6.70;;;1.97;;
16254;SDS011;8235;52.198;9.904;2023-04-27T08:28:57;3.97;;;1.60;;
16254;SDS011;8235;52.198;9.904;2023-04-27T08:31:24;4.77;;;1.80;;
16254;SDS011;8235;52.198;9.904;2023-04-27T08:33:54;6.83;;;2.00;;
16254;SDS011;8235;52.198;9.904;2023-04-27T08:36:22;4.17;;;1.87;;
16254;SDS011;8235;52.198;9.904;2023-04-27T08:38:50;4.63;;;1.80;;
16254;SDS011;8235;52.198;9.904;2023-04-27T08:41:17;3.47;;;1.70;;
16254;SDS011;8235;52.198;9.904;2023-04-27T08:43:45;4.70;;;1.77;;
16254;SDS011;8235;52.198;9.904;2023-04-27T08:46:13;3.67;;;1.80;;
16254;SDS011;8235;52.198;9.904;2023-04-27T08:48:43;3.60;;;1.53;;
16254;SDS011;8235;52.198;9.904;2023-04-27T08:51:11;1.80;;;1.20;;
16254;SDS011;8235;52.198;9.904;2023-04-27T08:53:44;3.53;;;1.10;;
16254;SDS011;8235;52.198;9.904;2023-04-27T08:56:14;3.50;;;1.10;;
16254;SDS011;8235;52.198;9.904;2023-04-27T08:58:41;3.73;;;1.27;;
16254;SDS011;8235;52.198;9.904;2023-04-27T09:01:07;2.60;;;1.50;;
16254;SDS011;8235;52.198;9.904;2023-04-27T09:03:34;5.50;;;1.80;;
16254;SDS011;8235;52.198;9.904;2023-04-27T09:06:02;2.00;;;1.57;;
16254;SDS011;8235;52.198;9.904;2023-04-27T09:08:40;4.17;;;1.40;;
16254;SDS011;8235;52.198;9.904;2023-04-27T09:11:08;3.57;;;1.90;;
16254;SDS011;8235;52.198;9.904;2023-04-27T09:13:34;3.40;;;1.30;;
16254;SDS011;8235;52.198;9.904;2023-04-27T09:16:02;2.47;;;1.37;;
16254;SDS011;8235;52.198;9.904;2023-04-27T09:18:28;2.33;;;1.53;;
16254;SDS011;8235;52.198;9.904;2023-04-27T09:20:58;2.27;;;1.70;;
16254;SDS011;8235;52.198;9.904;2023-04-27T09:23:25;4.03;;;1.37;;
16254;SDS011;8235;52.198;9.904;2023-04-27T09:25:54;2.53;;;1.53;;
16254;SDS011;8235;52.198;9.904;2023-04-27T09:28:22;3.47;;;1.63;;
16254;SDS011;8235;52.198;9.904;2023-04-27T09:30:50;5.07;;;1.60;;
16254;SDS011;8235;52.198;9.904;2023-04-27T09:33:21;2.00;;;1.20;;
16254;SDS011;8235;52.198;9.904;2023-04-27T09:35:49;2.03;;;1.30;;
16254;SDS011;8235;52.198;9.904;2023-04-27T09:38:16;2.40;;;1.30;;
16254;SDS011;8235;52.198;9.904;2023-04-27T09:40:43;2.80;;;1.37;;
16254;SDS011;8235;52.198;9.904;2023-04-27T09:43:11;3.03;;;1.30;;
16254;SDS011;8235;52.198;9.904;2023-04-27T09:45:38;2.13;;;1.43;;
16254;SDS011;8235;52.198;9.904;2023-04-27T09:48:05;2.53;;;1.60;;
16254;SDS011;8235;52.198;9.904;2023-04-27T09:50:33;3.50;;;1.53;;
16254;SDS011;8235;52.198;9.904;2023-04-27T09:53:01;3.70;;;1.40;;
16254;SDS011;8235;52.198;9.904;2023-04-27T09:55:29;1.43;;;1.33;;
16254;SDS011;8235;52.198;9.904;2023-04-27T09:58:08;3.23;;;1.40;;
16254;SDS011;8235;52.198;9.904;2023-04-27T10:00:58;3.37;;;1.50;;
16254;SDS011;8235;52.198;9.904;2023-04-27T10:03:32;2.47;;;1.80;;
16254;SDS011;8235;52.198;9.904;2023-04-27T10:09:18;2.20;;;1.60;;
16254;SDS011;8235;52.198;9.904;2023-04-27T10:11:48;1.90;;;1.40;;
16254;SDS011;8235;52.198;9.904;2023-04-27T10:14:16;1.70;;;1.50;;
16254;SDS011;8235;52.198;9.904;2023-04-27T10:16:45;1.83;;;1.30;;
16254;SDS011;8235;52.198;9.904;2023-04-27T10:19:14;4.67;;;1.53;;
16254;SDS011;8235;52.198;9.904;2023-04-27T10:21:51;2.33;;;1.40;;
16254;SDS011;8235;52.198;9.904;2023-04-27T10:24:29;4.37;;;1.53;;
16254;SDS011;8235;52.198;9.904;2023-04-27T10:26:59;5.20;;;1.90;;
16254;SDS011;8235;52.198;9.904;2023-04-27T10:29:34;3.30;;;1.53;;
16254;SDS011;8235;52.198;9.904;2023-04-27T10:32:06;4.70;;;1.43;;
16254;SDS011;8235;52.198;9.904;2023-04-27T10:34:34;2.50;;;1.60;;
16254;SDS011;8235;52.198;9.904;2023-04-27T10:37:05;3.63;;;1.50;;
16254;SDS011;8235;52.198;9.904;2023-04-27T10:39:33;2.00;;;1.60;;
16254;SDS011;8235;52.198;9.904;2023-04-27T10:42:01;2.40;;;1.50;;
16254;SDS011;8235;52.198;9.904;2023-04-27T10:44:28;3.70;;;1.80;;
16254;SDS011;8235;52.198;9.904;2023-04-27T10:46:57;3.27;;;1.50;;
16254;SDS011;8235;52.198;9.904;2023-04-27T10:49:27;2.23;;;1.50;;
16254;SDS011;8235;52.198;9.904;2023-04-27T10:51:55;3.70;;;1.73;;
16254;SDS011;8235;52.198;9.904;2023-04-27T10:54:24;2.27;;;1.50;;
16254;SDS011;8235;52.198;9.904;2023-04-27T10:56:52;3.70;;;1.50;;
16254;SDS011;8235;52.198;9.904;2023-04-27T10:59:18;3.10;;;1.50;;
16254;SDS011;8235;52.198;9.904;2023-04-27T11:01:46;2.70;;;1.73;;
16254;SDS011;8235;52.198;9.904;2023-04-27T11:04:13;2.10;;;1.80;;
16254;SDS011;8235;52.198;9.904;2023-04-27T11:06:42;2.27;;;1.60;;
16254;SDS011;8235;52.198;9.904;2023-04-27T11:09:10;2.10;;;1.53;;
16254;SDS011;8235;52.198;9.904;2023-04-27T11:11:42;2.10;;;1.70;;
16254;SDS011;8235;52.198;9.904;2023-04-27T11:14:12;1.97;;;1.47;;
16254;SDS011;8235;52.198;9.904;2023-04-27T11:16:44;1.30;;;1.20;;
16254;SDS011;8235;52.198;9.904;2023-04-27T11:19:11;1.20;;;1.03;;
16254;SDS011;8235;52.198;9.904;2023-04-27T11:21:38;4.07;;;1.70;;
16254;SDS011;8235;52.198;9.904;2023-04-27T11:24:06;3.43;;;1.30;;
16254;SDS011;8235;52.198;9.904;2023-04-27T11:26:34;2.67;;;1.20;;
16254;SDS011;8235;52.198;9.904;2023-04-27T11:29:01;1.80;;;1.40;;
16254;SDS011;8235;52.198;9.904;2023-04-27T11:31:37;2.87;;;1.43;;
16254;SDS011;8235;52.198;9.904;2023-04-27T11:34:05;3.27;;;1.93;;
16254;SDS011;8235;52.198;9.904;2023-04-27T11:36:32;2.00;;;1.47;;
16254;SDS011;8235;52.198;9.904;2023-04-27T11:38:59;5.00;;;1.40;;
16254;SDS011;8235;52.198;9.904;2023-04-27T11:41:33;1.57;;;1.40;;
16254;SDS011;8235;52.198;9.904;2023-04-27T11:44:04;1.70;;;1.37;;
16254;SDS011;8235;52.198;9.904;2023-04-27T11:46:31;1.97;;;1.40;;
16254;SDS011;8235;52.198;9.904;2023-04-27T11:49:00;2.63;;;1.23;;
16254;SDS011;8235;52.198;9.904;2023-04-27T11:51:28;2.27;;;1.57;;
16254;SDS011;8235;52.198;9.904;2023-04-27T11:53:55;1.83;;;1.67;;
16254;SDS011;8235;52.198;9.904;2023-04-27T11:56:34;1.63;;;1.53;;
16254;SDS011;8235;52.198;9.904;2023-04-27T11:59:01;3.60;;;1.47;;
16254;SDS011;8235;52.198;9.904;2023-04-27T12:01:29;2.53;;;1.40;;
16254;SDS011;8235;52.198;9.904;2023-04-27T12:03:56;3.63;;;2.10;;
16254;SDS011;8235;52.198;9.904;2023-04-27T12:06:23;1.93;;;1.73;;
16254;SDS011;8235;52.198;9.904;2023-04-27T12:08:50;2.43;;;1.57;;
16254;SDS011;8235;52.198;9.904;2023-04-27T12:11:17;3.23;;;1.80;;
16254;SDS011;8235;52.198;9.904;2023-04-27T12:13:45;1.70;;;1.57;;
16254;SDS011;8235;52.198;9.904;2023-04-27T12:16:12;2.37;;;1.70;;
16254;SDS011;8235;52.198;9.904;2023-04-27T12:18:39;2.43;;;1.80;;
16254;SDS011;8235;52.198;9.904;2023-04-27T12:21:05;1.90;;;1.60;;
16254;SDS011;8235;52.198;9.904;2023-04-27T12:23:32;2.00;;;1.63;;
16254;SDS011;8235;52.198;9.904;2023-04-27T12:25:59;3.03;;;1.73;;
16254;SDS011;8235;52.198;9.904;2023-04-27T12:28:25;1.77;;;1.60;;
16254;SDS011;8235;52.198;9.904;2023-04-27T12:30:53;1.80;;;1.70;;
16254;SDS011;8235;52.198;9.904;2023-04-27T12:33:20;1.73;;;1.60;;
16254;SDS011;8235;52.198;9.904;2023-04-27T12:35:46;2.77;;;1.70;;
16254;SDS011;8235;52.198;9.904;2023-04-27T12:38:13;3.50;;;1.87;;
16254;SDS011;8235;52.198;9.904;2023-04-27T12:40:39;2.83;;;1.60;;
16254;SDS011;8235;52.198;9.904;2023-04-27T12:43:07;4.97;;;1.80;;
16254;SDS011;8235;52.198;9.904;2023-04-27T12:45:34;3.80;;;1.70;;
16254;SDS011;8235;52.198;9.904;2023-04-27T12:48:02;3.63;;;2.00;;
16254;SDS011;8235;52.198;9.904;2023-04-27T12:50:29;3.03;;;1.90;;
16254;SDS011;8235;52.198;9.904;2023-04-27T12:52:56;2.70;;;1.90;;
16254;SDS011;8235;52.198;9.904;2023-04-27T12:55:22;1.80;;;1.60;;
16254;SDS011;8235;52.198;9.904;2023-04-27T12:57:49;5.60;;;2.30;;
16254;SDS011;8235;52.198;9.904;2023-04-27T13:00:16;2.73;;;2.00;;
16254;SDS011;8235;52.198;9.904;2023-04-27T13:02:42;2.70;;;2.00;;
16254;SDS011;8235;52.198;9.904;2023-04-27T13:05:11;4.63;;;2.00;;
16254;SDS011;8235;52.198;9.904;2023-04-27T13:07:38;2.33;;;2.10;;
16254;SDS011;8235;52.198;9.904;2023-04-27T13:10:05;2.10;;;1.87;;
16254;SDS011;8235;52.198;9.904;2023-04-27T13:12:32;3.40;;;2.13;;
16254;SDS011;8235;52.198;9.904;2023-04-27T13:14:59;2.67;;;1.90;;
16254;SDS011;8235;52.198;9.904;2023-04-27T13:17:25;2.20;;;1.97;;
16254;SDS011;8235;52.198;9.904;2023-04-27T13:19:52;5.33;;;2.33;;
16254;SDS011;8235;52.198;9.904;2023-04-27T13:22:20;4.07;;;2.50;;
16254;SDS011;8235;52.198;9.904;2023-04-27T13:24:46;3.57;;;2.10;;
16254;SDS011;8235;52.198;9.904;2023-04-27T13:27:13;2.77;;;1.70;;
16254;SDS011;8235;52.198;9.904;2023-04-27T13:29:41;4.20;;;1.80;;
16254;SDS011;8235;52.198;9.904;2023-04-27T13:32:07;3.13;;;1.67;;
16254;SDS011;8235;52.198;9.904;2023-04-27T13:34:34;4.30;;;2.20;;
16254;SDS011;8235;52.198;9.904;2023-04-27T13:37:00;2.27;;;1.73;;
16254;SDS011;8235;52.198;9.904;2023-04-27T13:39:29;4.33;;;2.10;;
16254;SDS011;8235;52.198;9.904;2023-04-27T13:41:56;2.57;;;1.77;;
16254;SDS011;8235;52.198;9.904;2023-04-27T13:44:23;2.37;;;1.77;;
16254;SDS011;8235;52.198;9.904;2023-04-27T13:46:50;2.80;;;1.90;;
16254;SDS011;8235;52.198;9.904;2023-04-27T13:49:16;2.60;;;1.87;;
16254;SDS011;8235;52.198;9.904;2023-04-27T13:51:43;2.77;;;2.13;;
16254;SDS011;8235;52.198;9.904;2023-04-27T13:54:10;2.30;;;1.90;;
16254;SDS011;8235;52.198;9.904;2023-04-27T13:56:38;3.63;;;1.80;;
16254;SDS011;8235;52.198;9.904;2023-04-27T13:59:04;2.60;;;1.73;;
16254;SDS011;8235;52.198;9.904;2023-04-27T14:01:31;2.47;;;1.70;;
16254;SDS011;8235;52.198;9.904;2023-04-27T14:03:57;2.03;;;1.83;;
16254;SDS011;8235;52.198;9.904;2023-04-27T14:06:24;2.20;;;1.60;;
16254;SDS011;8235;52.198;9.904;2023-04-27T14:08:52;2.70;;;1.63;;
16254;SDS011;8235;52.198;9.904;2023-04-27T14:11:18;1.93;;;1.57;;
16254;SDS011;8235;52.198;9.904;2023-04-27T14:13:47;2.70;;;2.10;;
16254;SDS011;8235;52.198;9.904;2023-04-27T14:16:14;2.27;;;1.80;;
16254;SDS011;8235;52.198;9.904;2023-04-27T14:18:40;3.47;;;2.00;;
16254;SDS011;8235;52.198;9.904;2023-04-27T14:21:07;2.53;;;1.90;;
16254;SDS011;8235;52.198;9.904;2023-04-27T14:23:33;2.03;;;1.60;;
16254;SDS011;8235;52.198;9.904;2023-04-27T14:26:00;2.37;;;1.60;;
16254;SDS011;8235;52.198;9.904;2023-04-27T14:28:27;2.73;;;1.77;;
16254;SDS011;8235;52.198;9.904;2023-04-27T14:30:55;3.93;;;1.60;;
16254;SDS011;8235;52.198;9.904;2023-04-27T14:33:22;2.13;;;1.77;;
16254;SDS011;8235;52.198;9.904;2023-04-27T14:35:48;3.40;;;1.60;;
16254;SDS011;8235;52.198;9.904;2023-04-27T14:38:15;2.37;;;1.93;;
16254;SDS011;8235;52.198;9.904;2023-04-27T14:40:42;3.63;;;1.83;;
16254;SDS011;8235;52.198;9.904;2023-04-27T14:43:08;2.47;;;1.80;;
16254;SDS011;8235;52.198;9.904;2023-04-27T14:45:35;3.17;;;1.77;;
16254;SDS011;8235;52.198;9.904;2023-04-27T14:48:03;2.30;;;1.57;;
16254;SDS011;8235;52.198;9.904;2023-04-27T14:50:30;3.67;;;1.80;;
16254;SDS011;8235;52.198;9.904;2023-04-27T14:52:57;2.27;;;2.03;;
16254;SDS011;8235;52.198;9.904;2023-04-27T14:55:23;3.10;;;1.77;;
16254;SDS011;8235;52.198;9.904;2023-04-27T14:57:49;2.57;;;1.83;;
16254;SDS011;8235;52.198;9.904;2023-04-27T15:00:16;2.67;;;1.60;;
16254;SDS011;8235;52.198;9.904;2023-04-27T15:02:43;4.00;;;2.20;;
16254;SDS011;8235;52.198;9.904;2023-04-27T15:05:11;3.03;;;2.43;;